createdAt,value
2023-01-20T01:50:26.824Z,100.00
2023-01-20T01:51:35.491Z,100.00
2023-01-20T01:52:41.161Z,100.00
2023-01-20T01:53:46.517Z,100.00
2023-01-20T01:54:48.710Z,100.00
2023-01-20T01:55:56.983Z,100.00
2023-01-20T01:57:00.037Z,100.00
2023-01-20T01:58:04.351Z,100.00
2023-01-20T01:59:07.489Z,100.00
2023-01-20T02:00:10.763Z,100.00
2023-01-20T02:01:13.935Z,100.00
2023-01-20T02:02:19.681Z,100.00
2023-01-20T02:03:21.923Z,100.00
2023-01-20T02:04:26.055Z,100.00
2023-01-20T02:05:29.946Z,100.00
2023-01-20T02:06:35.466Z,100.00
2023-01-20T02:07:38.845Z,100.00
2023-01-20T02:08:42.133Z,100.00
2023-01-20T02:09:44.549Z,100.00
2023-01-20T02:10:46.576Z,100.00
2023-01-20T02:11:51.949Z,100.00
2023-01-20T02:12:54.383Z,100.00
2023-01-20T02:13:58.091Z,100.00
2023-01-20T02:15:02.832Z,100.00
2023-01-20T02:16:15.121Z,100.00
2023-01-20T02:17:42.240Z,100.00
2023-01-20T02:18:59.672Z,100.00
2023-01-20T02:20:34.682Z,100.00
2023-01-20T02:22:09.573Z,100.00
2023-01-20T02:23:15.328Z,100.00
2023-01-20T02:24:40.666Z,100.00
2023-01-20T02:26:06.349Z,100.00
2023-01-20T02:27:30.290Z,100.00
2023-01-20T02:29:09.899Z,100.00
2023-01-20T02:30:38.195Z,100.00
2023-01-20T02:31:56.276Z,100.00
2023-01-20T02:33:02.167Z,100.00
2023-01-20T02:34:11.020Z,100.00
2023-01-20T02:36:32.562Z,100.00
2023-01-20T02:37:53.563Z,100.00
2023-01-20T02:39:08.265Z,100.00
2023-01-20T02:40:29.022Z,100.00
2023-01-20T02:41:57.713Z,100.00
2023-01-20T02:43:15.324Z,100.00
2023-01-20T02:44:24.046Z,100.00
2023-01-20T02:45:48.316Z,100.00
2023-01-20T02:48:25.694Z,100.00
2023-01-20T02:49:34.306Z,100.00
2023-01-20T02:50:48.844Z,100.00
2023-01-20T02:52:06.709Z,100.00
2023-01-20T02:53:14.079Z,100.00
2023-01-20T02:54:18.100Z,100.00
2023-01-20T02:55:24.269Z,100.00
2023-01-20T02:56:29.437Z,100.00
2023-01-20T02:57:38.344Z,100.00
2023-01-20T02:58:44.069Z,100.00
2023-01-20T02:59:49.748Z,100.00
2023-01-20T03:00:55.588Z,100.00
2023-01-20T03:02:01.419Z,100.00
2023-01-20T03:03:07.681Z,100.00
2023-01-20T03:04:13.276Z,100.00
2023-01-20T03:05:19.079Z,100.00
2023-01-20T03:06:24.832Z,100.00
2023-01-20T03:07:30.417Z,100.00
2023-01-20T03:08:34.402Z,100.00
2023-01-20T03:09:49.071Z,100.00
2023-01-20T03:10:54.080Z,100.00
2023-01-20T03:12:03.340Z,100.00
2023-01-20T03:13:18.243Z,100.00
2023-01-20T03:14:21.931Z,100.00
2023-01-20T03:15:30.320Z,100.00
2023-01-20T03:16:32.760Z,100.00
2023-01-20T03:17:36.275Z,100.00
2023-01-20T03:18:39.011Z,100.00
2023-01-20T03:19:41.181Z,100.00
2023-01-20T03:20:43.511Z,100.00
2023-01-20T03:21:45.917Z,100.00
2023-01-20T03:22:50.329Z,100.00
2023-01-20T03:23:55.638Z,100.00
2023-01-20T03:24:58.644Z,100.00
2023-01-20T03:26:04.025Z,100.00
2023-01-20T03:27:07.250Z,100.00
2023-01-20T03:28:09.823Z,100.00
2023-01-20T03:29:11.833Z,100.00
2023-01-20T03:30:15.741Z,100.00
2023-01-20T03:31:21.569Z,100.00
2023-01-20T03:32:24.621Z,100.00
2023-01-20T03:33:28.747Z,100.00
2023-01-20T03:34:34.932Z,100.00
2023-01-20T03:35:38.030Z,100.00
2023-01-20T03:36:43.766Z,100.00
2023-01-20T03:37:46.097Z,100.00
2023-01-20T03:38:49.106Z,100.00
2023-01-20T03:39:53.710Z,100.00
2023-01-20T03:42:28.276Z,100.00
2023-01-20T03:43:40.397Z,100.00
2023-01-20T03:44:57.718Z,100.00
2023-01-20T03:46:06.404Z,100.00
2023-01-20T03:47:24.332Z,100.00
2023-01-20T03:49:55.100Z,100.00
2023-01-20T03:51:00.869Z,100.00
2023-01-20T03:53:34.094Z,100.00
2023-01-20T03:54:46.746Z,100.00
2023-01-20T03:56:05.193Z,100.00
2023-01-20T03:57:14.553Z,100.00
2023-01-20T03:58:20.215Z,100.00
2023-01-20T03:59:23.386Z,100.00
2023-01-20T04:00:29.610Z,100.00
2023-01-20T04:01:38.930Z,100.00
2023-01-20T04:02:42.361Z,100.00
2023-01-20T04:03:46.862Z,100.00
2023-01-20T04:04:50.243Z,100.00
2023-01-20T04:05:55.006Z,100.00
2023-01-20T04:06:57.348Z,100.00
2023-01-20T04:08:03.505Z,100.00
2023-01-20T04:09:09.238Z,100.00
2023-01-20T04:10:15.045Z,100.00
2023-01-20T04:11:18.733Z,100.00
2023-01-20T04:12:21.106Z,100.00
2023-01-20T04:13:24.172Z,100.00
2023-01-20T04:14:26.314Z,100.00
2023-01-20T04:15:34.756Z,100.00
2023-01-20T04:16:37.615Z,100.00
2023-01-20T04:17:39.951Z,100.00
2023-01-20T04:18:45.698Z,100.00
2023-01-20T04:19:48.340Z,100.00
2023-01-20T04:20:54.285Z,100.00
2023-01-20T04:22:11.929Z,100.00
2023-01-20T04:23:23.288Z,100.00
2023-01-20T04:24:36.025Z,100.00
2023-01-20T04:25:38.347Z,100.00
2023-01-20T04:26:40.662Z,100.00
2023-01-20T04:27:42.538Z,100.00
2023-01-20T04:28:44.553Z,100.00
2023-01-20T04:29:46.558Z,100.00
2023-01-20T04:30:49.210Z,100.00
2023-01-20T04:32:02.799Z,100.00
2023-01-20T04:33:04.917Z,100.00
2023-01-20T04:34:09.153Z,100.00
2023-01-20T04:35:14.579Z,100.00
2023-01-20T04:36:17.169Z,100.00
2023-01-20T04:37:19.164Z,100.00
2023-01-20T04:38:21.038Z,100.00
2023-01-20T04:39:22.954Z,100.00
2023-01-20T04:40:25.180Z,100.00
2023-01-20T04:41:27.189Z,100.00
2023-01-20T04:42:29.289Z,100.00
2023-01-20T04:43:31.152Z,100.00
2023-01-20T04:44:33.028Z,100.00
2023-01-20T04:45:35.709Z,100.00
2023-01-20T04:46:37.720Z,100.00
2023-01-20T04:47:39.689Z,100.00
2023-01-20T04:48:44.434Z,100.00
2023-01-20T04:49:46.397Z,100.00
2023-01-20T04:50:48.370Z,100.00
2023-01-20T04:51:51.871Z,100.00
2023-01-20T04:52:55.978Z,100.00
2023-01-20T04:53:59.183Z,100.00
2023-01-20T04:55:01.783Z,100.00
2023-01-20T04:56:06.554Z,100.00
2023-01-20T04:57:08.467Z,100.00
2023-01-20T04:58:10.622Z,100.00
2023-01-20T04:59:12.558Z,100.00
2023-01-20T05:00:15.560Z,100.00
2023-01-20T05:01:17.841Z,100.00
2023-01-20T05:02:20.333Z,100.00
2023-01-20T05:03:22.332Z,100.00
2023-01-20T05:04:24.479Z,100.00
2023-01-20T05:05:28.624Z,100.00
2023-01-20T05:06:30.650Z,100.00
2023-01-20T05:07:32.635Z,100.00
2023-01-20T05:08:34.823Z,100.00
2023-01-20T05:09:37.425Z,100.00
2023-01-20T05:10:39.501Z,100.00
2023-01-20T05:11:44.549Z,100.00
2023-01-20T05:12:46.812Z,100.00
2023-01-20T05:13:48.916Z,100.00
2023-01-20T05:14:51.415Z,100.00
2023-01-20T05:15:53.671Z,100.00
2023-01-20T05:16:56.168Z,100.00
2023-01-20T05:17:58.067Z,100.00
2023-01-20T05:19:00.909Z,100.00
2023-01-20T05:20:04.217Z,100.00
2023-01-20T05:21:06.507Z,100.00
2023-01-20T05:22:09.119Z,100.00
2023-01-20T05:23:11.784Z,100.00
2023-01-20T05:24:13.873Z,100.00
2023-01-20T05:25:16.627Z,100.00
2023-01-20T05:26:23.958Z,100.00
2023-01-20T05:27:26.157Z,100.00
2023-01-20T05:28:29.338Z,100.00
2023-01-20T05:29:31.651Z,100.00
2023-01-20T05:30:34.070Z,100.00
2023-01-20T05:31:36.430Z,100.00
2023-01-20T05:32:38.652Z,100.00
2023-01-20T05:33:40.765Z,100.00
2023-01-20T05:34:42.865Z,100.00
2023-01-20T05:35:45.340Z,100.00
2023-01-20T05:36:52.196Z,100.00
2023-01-20T05:37:56.296Z,100.00
2023-01-20T05:38:58.331Z,100.00
2023-01-20T05:40:00.342Z,100.00
2023-01-20T05:41:04.825Z,100.00
2023-01-20T05:42:06.738Z,100.00
2023-01-20T05:43:08.646Z,100.00
2023-01-20T05:44:10.612Z,100.00
2023-01-20T05:45:13.077Z,100.00
2023-01-20T05:46:16.587Z,100.00
2023-01-20T05:47:19.368Z,100.00
2023-01-20T05:48:21.542Z,100.00
2023-01-20T05:49:23.499Z,100.00
2023-01-20T05:50:27.507Z,100.00
2023-01-20T05:51:29.825Z,100.00
2023-01-20T05:52:32.443Z,100.00
2023-01-20T05:53:34.518Z,100.00
2023-01-20T05:54:36.649Z,100.00
2023-01-20T05:55:39.012Z,100.00
2023-01-20T05:56:41.312Z,100.00
2023-01-20T05:57:43.605Z,100.00
2023-01-20T05:58:45.499Z,100.00
2023-01-20T05:59:47.411Z,100.00
2023-01-20T06:00:49.496Z,100.00
2023-01-20T06:01:51.510Z,100.00
2023-01-20T06:02:53.841Z,100.00
2023-01-20T06:03:56.033Z,100.00
2023-01-20T06:05:00.311Z,100.00
2023-01-20T06:06:04.505Z,100.00
2023-01-20T06:07:06.568Z,100.00
2023-01-20T06:08:08.437Z,100.00
2023-01-20T06:09:10.428Z,100.00
2023-01-20T06:10:12.413Z,100.00
2023-01-20T06:11:14.484Z,100.00
2023-01-20T06:12:16.370Z,100.00
2023-01-20T06:13:18.404Z,100.00
2023-01-20T06:14:20.262Z,100.00
2023-01-20T06:15:24.925Z,100.00
2023-01-20T06:16:26.968Z,100.00
2023-01-20T06:17:29.100Z,100.00
2023-01-20T06:18:32.713Z,100.00
2023-01-20T06:19:34.614Z,100.00
2023-01-20T06:20:36.736Z,100.00
2023-01-20T06:21:38.595Z,100.00
2023-01-20T06:22:40.571Z,100.00
2023-01-20T06:23:42.465Z,100.00
2023-01-20T06:24:44.941Z,100.00
2023-01-20T06:25:46.869Z,100.00
2023-01-20T06:26:52.196Z,100.00
2023-01-20T06:27:54.127Z,100.00
2023-01-20T06:28:59.333Z,100.00
2023-01-20T06:30:01.247Z,100.00
2023-01-20T06:31:06.324Z,100.00
2023-01-20T06:32:08.303Z,100.00
2023-01-20T06:33:10.174Z,100.00
2023-01-20T06:34:12.604Z,100.00
2023-01-20T06:35:15.404Z,100.00
2023-01-20T06:36:17.834Z,100.00
2023-01-20T06:37:20.659Z,100.00
2023-01-20T06:38:25.688Z,100.00
2023-01-20T06:39:27.830Z,100.00
2023-01-20T06:40:29.923Z,100.00
2023-01-20T06:41:32.053Z,100.00
2023-01-20T06:42:33.912Z,100.00
2023-01-20T06:43:36.632Z,100.00
2023-01-20T06:44:38.520Z,100.00
2023-01-20T06:45:40.388Z,100.00
2023-01-20T06:46:42.436Z,100.00
2023-01-20T06:47:49.511Z,100.00
2023-01-20T06:48:51.623Z,100.00
2023-01-20T06:49:53.499Z,100.00
2023-01-20T06:51:09.503Z,100.00
2023-01-20T06:52:11.615Z,100.00
2023-01-20T06:53:13.562Z,100.00
2023-01-20T06:54:16.170Z,100.00
2023-01-20T06:55:18.220Z,100.00
2023-01-20T06:56:20.907Z,100.00
2023-01-20T06:57:23.021Z,100.00
2023-01-20T06:58:26.806Z,100.00
2023-01-20T06:59:28.725Z,100.00
2023-01-20T07:00:30.948Z,100.00
2023-01-20T07:01:33.078Z,100.00
2023-01-20T07:02:35.321Z,100.00
2023-01-20T07:03:37.692Z,100.00
2023-01-20T07:04:39.680Z,100.00
2023-01-20T07:05:42.360Z,100.00
2023-01-20T07:06:44.484Z,100.00
2023-01-20T07:07:46.371Z,100.00
2023-01-20T07:08:48.398Z,100.00
2023-01-20T07:09:55.323Z,100.00
2023-01-20T07:10:57.434Z,100.00
2023-01-20T07:11:59.295Z,100.00
2023-01-20T07:13:01.187Z,100.00
2023-01-20T07:14:04.759Z,100.00
2023-01-20T07:15:07.751Z,100.00
2023-01-20T07:16:13.735Z,100.00
2023-01-20T07:17:15.218Z,100.00
2023-01-20T07:18:17.195Z,100.00
2023-01-20T07:19:19.210Z,100.00
2023-01-20T07:20:22.492Z,100.00
2023-01-20T07:21:26.515Z,100.00
2023-01-20T07:22:28.844Z,100.00
2023-01-20T07:23:31.543Z,100.00
2023-01-20T07:24:33.466Z,100.00
2023-01-20T07:25:36.602Z,100.00
2023-01-20T07:26:38.729Z,100.00
2023-01-20T07:27:40.597Z,100.00
2023-01-20T07:28:43.045Z,100.00
2023-01-20T07:29:45.168Z,100.00
2023-01-20T07:30:47.302Z,100.00
2023-01-20T07:31:49.883Z,100.00
2023-01-20T07:32:53.012Z,100.00
2023-01-20T07:33:55.460Z,100.00
2023-01-20T07:34:57.447Z,100.00
2023-01-20T07:36:00.443Z,100.00
2023-01-20T07:37:02.484Z,100.00
2023-01-20T11:53:22.544Z,100.00
2023-01-20T11:54:27.464Z,100.00
2023-01-20T11:55:29.580Z,100.00
2023-01-20T11:56:44.476Z,100.00
2023-01-20T11:57:50.284Z,100.00
2023-01-20T11:59:02.094Z,100.00
2023-01-20T12:00:20.135Z,100.00
2023-01-20T12:01:27.275Z,100.00
2023-01-20T12:02:29.305Z,100.00
2023-01-20T12:05:21.636Z,100.00
2023-01-20T12:06:33.254Z,100.00
2023-01-20T12:07:38.981Z,100.00
2023-01-20T12:08:54.084Z,100.00
2023-01-20T12:10:05.680Z,100.00
2023-01-20T12:11:10.331Z,100.00
2023-01-20T12:12:33.601Z,100.00
2023-01-20T12:13:50.572Z,100.00
2023-01-20T12:16:11.128Z,100.00
2023-01-20T12:17:44.384Z,100.00
2023-01-20T12:19:01.755Z,100.00
2023-01-20T12:20:18.046Z,100.00
2023-01-20T12:21:24.121Z,100.00
2023-01-20T12:24:03.337Z,100.00
2023-01-20T12:25:15.349Z,100.00
2023-01-20T12:26:20.448Z,100.00
2023-01-20T12:27:26.116Z,100.00
2023-01-20T12:28:49.452Z,100.00
2023-01-20T12:29:55.133Z,100.00
2023-01-20T12:31:03.009Z,100.00
2023-01-20T12:32:05.315Z,99.83
2023-01-20T12:33:23.368Z,99.76
2023-01-20T12:34:30.319Z,99.45
2023-01-20T12:35:35.990Z,99.09
2023-01-20T12:37:12.053Z,99.15
2023-01-20T12:38:17.839Z,98.98
2023-01-20T12:39:23.513Z,98.72
2023-01-20T12:40:41.939Z,98.45
2023-01-20T12:42:09.311Z,98.54
2023-01-20T12:44:54.133Z,98.42
2023-01-20T12:46:14.417Z,98.40
2023-01-20T12:47:26.809Z,98.92
2023-01-20T12:48:35.120Z,98.92
2023-01-20T12:49:43.869Z,98.73
2023-01-20T12:51:09.839Z,98.68
2023-01-20T12:52:24.772Z,98.87
2023-01-20T12:53:47.539Z,99.17
2023-01-20T12:55:10.285Z,99.13
2023-01-20T12:56:49.764Z,99.21
2023-01-20T12:57:58.320Z,99.29
2023-01-20T12:59:23.859Z,99.45
2023-01-20T13:00:49.829Z,99.71
2023-01-20T13:03:14.825Z,100.00
2023-01-20T13:04:48.018Z,100.00
2023-01-20T13:06:19.352Z,100.00
2023-01-20T13:07:39.898Z,100.00
2023-01-20T13:08:57.508Z,100.00
2023-01-20T13:10:22.794Z,100.00
2023-01-20T13:11:49.370Z,100.00
2023-01-20T13:13:01.079Z,100.00
2023-01-20T13:14:26.908Z,100.00
2023-01-20T13:15:35.648Z,100.00
2023-01-20T13:16:44.784Z,100.00
2023-01-20T13:17:59.536Z,100.00
2023-01-20T13:19:17.587Z,100.00
2023-01-20T13:20:26.702Z,100.00
2023-01-20T13:21:33.210Z,100.00
2023-01-20T13:22:36.314Z,100.00
2023-01-20T13:23:38.658Z,100.00
2023-01-20T13:24:44.912Z,100.00
2023-01-20T13:25:47.964Z,100.00
2023-01-20T13:26:50.489Z,100.00
2023-01-20T13:27:53.369Z,100.00
2023-01-20T13:28:56.815Z,100.00
2023-01-20T13:30:00.680Z,100.00
2023-01-20T13:31:09.460Z,100.00
2023-01-20T13:32:35.244Z,100.00
2023-01-20T13:33:40.275Z,100.00
2023-01-20T13:34:43.238Z,100.00
2023-01-20T13:35:48.938Z,100.00
2023-01-20T13:37:07.289Z,100.00
2023-01-20T13:38:24.506Z,100.00
2023-01-20T13:39:47.585Z,100.00
2023-01-20T13:40:53.001Z,100.00
2023-01-20T13:41:55.853Z,100.00
2023-01-20T13:42:58.106Z,100.00
2023-01-20T13:44:04.266Z,100.00
2023-01-20T13:45:16.036Z,100.00
2023-01-20T13:46:22.719Z,100.00
2023-01-20T13:48:02.120Z,100.00
2023-01-20T13:49:13.692Z,100.00
2023-01-20T13:50:25.153Z,100.00
2023-01-20T13:51:39.878Z,100.00
2023-01-20T13:52:54.790Z,100.00
2023-01-20T13:54:26.458Z,100.00
2023-01-20T13:55:32.295Z,100.00
2023-01-20T13:56:34.414Z,100.00
2023-01-20T13:57:36.405Z,100.00
2023-01-20T13:58:38.800Z,100.00
2023-01-20T13:59:40.731Z,100.00
2023-01-20T14:00:43.533Z,100.00
2023-01-20T14:01:45.552Z,100.00
2023-01-20T14:02:49.647Z,100.00
2023-01-20T14:04:08.093Z,100.00
2023-01-20T14:06:41.911Z,100.00
2023-01-20T14:07:43.922Z,100.00
2023-01-20T14:08:49.254Z,100.00
2023-01-20T14:09:53.226Z,100.00
2023-01-20T14:11:14.087Z,100.00
2023-01-20T14:12:16.032Z,100.00
2023-01-20T14:13:21.655Z,100.00
2023-01-20T14:14:26.028Z,100.00
2023-01-20T14:15:32.704Z,100.00
2023-01-20T14:16:39.671Z,100.00
2023-01-20T14:17:42.278Z,100.00
2023-01-20T14:18:47.165Z,100.00
2023-01-20T14:19:51.845Z,100.00
2023-01-20T14:22:25.675Z,100.00
2023-01-20T14:23:30.961Z,100.00
2023-01-20T14:24:36.492Z,100.00
2023-01-20T14:25:38.592Z,100.00
2023-01-20T14:26:40.767Z,100.00
2023-01-20T14:27:43.864Z,100.00
2023-01-20T14:28:51.896Z,100.00
2023-01-20T14:29:56.274Z,100.00
2023-01-20T14:31:13.732Z,100.00
2023-01-20T14:32:22.717Z,100.00
2023-01-20T14:33:24.824Z,100.00
2023-01-20T14:34:29.408Z,100.00
2023-01-20T14:35:33.568Z,100.00
2023-01-20T14:36:36.581Z,100.00
2023-01-20T14:37:39.847Z,100.00
2023-01-20T14:38:56.579Z,100.00
2023-01-20T14:39:51.452Z,100.00
2023-01-20T14:40:54.713Z,100.00
2023-01-20T14:42:02.317Z,100.00
2023-01-20T14:43:17.366Z,100.00
2023-01-20T14:44:24.161Z,100.00
2023-01-20T14:45:29.423Z,100.00
2023-01-20T14:46:34.242Z,100.00
2023-01-20T14:47:37.894Z,100.00
2023-01-20T14:48:41.917Z,100.00
2023-01-20T14:49:47.925Z,100.00
2023-01-20T14:50:52.342Z,100.00
2023-01-20T14:51:55.024Z,100.00
2023-01-20T14:52:57.776Z,100.00
2023-01-20T14:54:29.426Z,100.00
2023-01-20T14:55:38.550Z,100.00
2023-01-20T14:56:44.466Z,100.00
2023-01-20T14:57:46.519Z,100.00
2023-01-20T14:58:51.421Z,100.00
2023-01-20T15:00:20.879Z,100.00
2023-01-20T15:01:27.127Z,100.00
2023-01-20T15:02:32.658Z,100.00
2023-01-20T15:03:34.935Z,100.00
2023-01-20T15:04:38.060Z,100.00
2023-01-20T15:06:56.965Z,100.00
2023-01-20T15:08:17.700Z,100.00
2023-01-20T15:09:28.414Z,100.00
2023-01-20T15:10:31.401Z,100.00
2023-01-20T15:11:34.210Z,100.00
2023-01-20T15:12:46.041Z,100.00
2023-01-20T15:13:54.516Z,100.00
2023-01-20T15:16:21.103Z,100.00
2023-01-20T15:17:23.145Z,100.00
2023-01-20T15:18:25.021Z,100.00
2023-01-20T15:19:32.457Z,100.00
2023-01-20T15:20:37.937Z,100.00
2023-01-20T15:21:44.164Z,100.00
2023-01-20T15:22:47.335Z,100.00
2023-01-20T15:23:51.155Z,100.00
2023-01-20T15:24:53.957Z,100.00
2023-01-20T15:25:56.633Z,100.00
2023-01-20T15:27:01.913Z,100.00
2023-01-20T15:28:04.266Z,100.00
2023-01-20T15:29:24.552Z,100.00
2023-01-20T15:30:26.623Z,100.00
2023-01-20T15:31:28.781Z,100.00
2023-01-20T15:32:30.892Z,100.00
2023-01-20T15:33:32.944Z,100.00
2023-01-20T15:34:35.641Z,100.00
2023-01-20T15:35:38.003Z,100.00
2023-01-20T20:29:52.784Z,100.00
2023-01-20T20:30:58.018Z,100.00
2023-01-20T20:32:00.319Z,100.00
2023-01-20T20:33:02.800Z,100.00
2023-01-20T20:34:07.081Z,100.00
2023-01-20T20:35:09.249Z,100.00
2023-01-20T20:36:12.213Z,100.00
2023-01-20T20:37:14.276Z,100.00
2023-01-20T20:38:16.653Z,100.00
2023-01-20T20:39:19.148Z,100.00
2023-01-20T20:40:21.213Z,100.00
2023-01-20T20:41:24.071Z,100.00
2023-01-20T20:42:25.987Z,100.00
2023-01-20T20:43:29.267Z,100.00
2023-01-20T20:44:31.277Z,100.00
2023-01-20T20:45:33.499Z,100.00
2023-01-20T20:46:35.525Z,100.00
2023-01-20T20:47:37.918Z,100.00
2023-01-20T20:48:39.932Z,100.00
2023-01-20T20:49:41.977Z,100.00
2023-01-20T20:50:44.096Z,100.00
2023-01-20T20:51:46.380Z,100.00
2023-01-20T20:52:48.313Z,100.00
2023-01-20T20:53:53.206Z,100.00
2023-01-20T20:54:55.512Z,100.00
2023-01-20T20:55:57.430Z,100.00
2023-01-20T20:56:59.655Z,100.00
2023-01-20T20:58:01.639Z,100.00
2023-01-20T20:59:03.986Z,100.00
2023-01-20T21:00:07.826Z,100.00
2023-01-20T21:02:23.293Z,100.00
2023-01-20T21:03:25.801Z,100.00
2023-01-20T21:04:27.947Z,100.00
2023-01-20T21:05:29.888Z,100.00
2023-01-20T21:06:33.098Z,100.00
2023-01-20T21:07:35.252Z,100.00
2023-01-20T21:08:38.275Z,100.00
2023-01-20T21:09:40.725Z,100.00
2023-01-20T21:10:42.835Z,100.00
2023-01-20T21:11:44.862Z,100.00
2023-01-20T21:12:47.144Z,100.00
2023-01-20T21:13:49.142Z,100.00
2023-01-20T21:14:51.339Z,100.00
2023-01-20T21:16:01.175Z,100.00
2023-01-20T21:17:04.021Z,100.00
2023-01-20T21:18:06.826Z,100.00
2023-01-20T21:19:08.744Z,100.00
2023-01-20T21:20:12.270Z,100.00
2023-01-20T21:21:14.895Z,100.00
2023-01-20T21:22:16.919Z,100.00
2023-01-20T21:23:18.883Z,100.00
2023-01-20T21:24:20.782Z,100.00
2023-01-20T21:25:23.015Z,100.00
2023-01-20T21:26:30.070Z,100.00
2023-01-20T21:27:31.635Z,100.00
2023-01-20T21:28:36.258Z,100.00
2023-01-20T21:29:38.331Z,100.00
2023-01-20T21:30:40.846Z,100.00
2023-01-20T21:31:42.911Z,100.00
2023-01-20T21:32:45.303Z,100.00
2023-01-20T21:33:54.348Z,100.00
2023-01-20T21:34:56.368Z,100.00
2023-01-20T21:36:00.749Z,100.00
2023-01-20T21:37:02.871Z,100.00
2023-01-20T21:38:06.149Z,100.00
2023-01-20T21:39:15.843Z,100.00
2023-01-20T21:40:18.446Z,100.00
2023-01-20T21:41:21.086Z,100.00
2023-01-20T21:42:23.179Z,100.00
2023-01-20T21:43:33.012Z,100.00
2023-01-20T21:44:35.140Z,100.00
2023-01-20T21:45:37.075Z,100.00
2023-01-20T21:46:41.257Z,100.00
2023-01-20T21:47:43.238Z,100.00
2023-01-20T21:48:45.720Z,100.00
2023-01-20T21:49:47.641Z,100.00
2023-01-20T21:50:49.845Z,100.00
2023-01-20T21:51:51.822Z,100.00
2023-01-20T21:52:53.701Z,100.00
2023-01-20T21:53:55.703Z,100.00
2023-01-20T21:54:57.743Z,100.00
2023-01-20T21:55:59.658Z,100.00
2023-01-20T21:57:01.817Z,100.00
2023-01-20T21:58:03.946Z,100.00
2023-01-20T21:59:07.312Z,100.00
2023-01-20T22:00:11.003Z,100.00
2023-01-20T22:01:13.283Z,100.00
2023-01-20T22:02:15.633Z,100.00
2023-01-20T22:03:17.766Z,100.00
2023-01-20T22:04:19.662Z,100.00
2023-01-20T22:05:21.653Z,100.00
2023-01-20T22:06:23.729Z,100.00
2023-01-20T22:07:25.739Z,100.00
2023-01-20T22:08:27.798Z,100.00
2023-01-20T22:09:29.673Z,100.00
2023-01-20T22:10:31.858Z,100.00
2023-01-20T22:11:34.797Z,100.00
2023-01-20T22:12:36.712Z,100.00
2023-01-20T22:13:38.591Z,100.00
2023-01-20T22:14:41.177Z,100.00
2023-01-20T22:15:43.567Z,100.00
2023-01-20T22:16:46.015Z,100.00
2023-01-20T22:17:48.249Z,100.00
2023-01-20T22:18:51.349Z,100.00
2023-01-20T22:19:53.333Z,100.00
2023-01-20T22:21:03.375Z,100.00
2023-01-20T22:22:07.344Z,100.00
2023-01-20T22:23:09.672Z,100.00
2023-01-20T22:24:11.566Z,100.00
2023-01-20T22:25:13.852Z,100.00
2023-01-20T22:26:15.935Z,100.00
2023-01-20T22:27:18.080Z,100.00
2023-01-20T22:28:19.940Z,100.00
2023-01-20T22:29:22.547Z,100.00
2023-01-20T22:30:24.548Z,100.00
2023-01-20T22:31:26.613Z,100.00
2023-01-20T22:32:28.602Z,100.00
2023-01-20T22:33:30.483Z,100.00
2023-01-20T22:34:32.347Z,100.00
2023-01-20T22:35:34.221Z,100.00
2023-01-20T22:36:37.035Z,100.00
2023-01-20T22:37:38.921Z,100.00
2023-01-20T22:38:40.907Z,100.00
2023-01-20T22:39:42.849Z,100.00
2023-01-20T22:40:44.817Z,100.00
2023-01-20T22:41:46.738Z,100.00
2023-01-20T22:42:49.787Z,100.00
2023-01-20T22:43:52.245Z,100.00
2023-01-20T22:44:54.118Z,100.00
2023-01-20T22:46:00.298Z,100.00
2023-01-20T22:47:02.399Z,100.00
2023-01-20T22:48:06.383Z,100.00
2023-01-20T22:49:09.095Z,100.00
2023-01-20T22:50:11.652Z,100.00
2023-01-20T22:51:16.481Z,100.00
2023-01-20T22:52:18.457Z,100.00
2023-01-20T22:53:20.335Z,100.00
2023-01-20T22:54:22.201Z,100.00
2023-01-20T22:55:24.392Z,100.00
2023-01-20T22:56:29.245Z,100.00
2023-01-20T22:57:31.164Z,100.00
2023-01-20T22:58:33.937Z,100.00
2023-01-20T22:59:38.726Z,100.00
2023-01-20T23:00:40.734Z,100.00
2023-01-20T23:01:42.719Z,100.00
2023-01-20T23:02:46.129Z,100.00
2023-01-20T23:03:57.799Z,100.00
2023-01-20T23:05:00.031Z,100.00
2023-01-20T23:06:02.048Z,100.00
2023-01-20T23:07:03.930Z,100.00
2023-01-20T23:08:05.912Z,100.00
2023-01-20T23:09:11.185Z,100.00
2023-01-20T23:10:13.522Z,100.00
2023-01-20T23:11:17.675Z,100.00
2023-01-20T23:12:21.020Z,100.00
2023-01-20T23:13:23.364Z,100.00
2023-01-20T23:14:25.445Z,100.00
2023-01-20T23:15:28.442Z,100.00
2023-01-20T23:16:30.689Z,100.00
2023-01-20T23:17:32.726Z,100.00
2023-01-20T23:18:34.614Z,100.00
2023-01-20T23:19:36.505Z,100.00
2023-01-20T23:20:38.816Z,100.00
2023-01-20T23:21:40.764Z,100.00
2023-01-20T23:22:42.731Z,100.00
2023-01-20T23:23:44.833Z,100.00
2023-01-20T23:24:46.843Z,100.00
2023-01-20T23:25:50.228Z,100.00
2023-01-20T23:26:53.373Z,100.00
2023-01-20T23:27:55.615Z,100.00
2023-01-20T23:28:57.637Z,100.00
2023-01-20T23:29:59.631Z,100.00
2023-01-20T23:31:03.838Z,100.00
2023-01-20T23:32:06.995Z,100.00
2023-01-20T23:33:09.687Z,100.00
2023-01-20T23:34:11.919Z,100.00
2023-01-20T23:35:13.840Z,100.00
2023-01-20T23:36:24.250Z,100.00
2023-01-20T23:37:26.173Z,100.00
2023-01-20T23:38:28.038Z,100.00
2023-01-20T23:39:30.949Z,100.00
2023-01-20T23:40:34.313Z,100.00
2023-01-20T23:41:36.206Z,100.00
2023-01-20T23:42:38.073Z,100.00
